Latest Weather Observations for Edinburgh

IDS60901

Issued at 12:51 am CST Saturday 20 April 2024 (issued every 10 minutes, with the page automatically refreshed every 10 minutes)

About weather observations | Map of Adelaide area stations | Latest observations for Adelaide area | Other Formats
Station Details ID: 023083 Name: EDINBURGH RAAF Lat: -34.71 Lon: 138.62 Height: 16.54 m
Data from the previous 72 hours. | See also: Recent months at Edinburgh
Date/Time
CST
Temp
°C
App
Temp
°C
Dew
Point
°C
Rel
Hum
%
Delta-T
°C
Wind Press
QNH
hPa
Press
MSL
hPa
Rain since
9am
mm
Dir  Spd
km/h
Gust
km/h
Spd
kts
Gust
kts
20/12:30am 10.5 8.9 8.6 88 0.9 SSW 7 11 4 6 1029.3 1029.3 0.0
20/12:00am 12.0 10.1 9.2 83 1.4 S 9 13 5 7 1029.4 1029.4 0.0
 
Date/Time
CST
Temp
°C
App
Temp
°C
Dew
Point
°C
Rel
Hum
%
Delta-T
°C
Wind Press
QNH
hPa
Press
MSL
hPa
Rain since
9am
mm
Dir  Spd
km/h
Gust
km/h
Spd
kts
Gust
kts
19/11:30pm 11.8 9.9 9.2 84 1.3 SSE 9 13 5 7 1029.6 1029.6 0.0
19/11:00pm 12.1 9.9 9.3 83 1.4 S 11 15 6 8 1029.7 1029.7 0.0
19/10:30pm 11.9 10.1 9.3 84 1.3 SSW 9 11 5 6 1029.8 1029.8 0.0
19/10:00pm 11.8 9.6 9.5 86 1.2 SSW 11 13 6 7 1029.8 1029.8 0.0
19/09:30pm 11.3 8.8 8.3 82 1.5 SW 11 13 6 7 1029.6 1029.6 0.0
19/09:00pm 12.5 10.1 8.8 78 1.8 SSW 11 13 6 7 1029.4 1029.4 0.0
19/08:30pm 11.9 9.8 8.2 78 1.8 SSW 9 11 5 6 1029.1 1029.1 0.0
19/08:00pm 13.6 11.6 8.7 72 2.5 SSW 9 17 5 9 1028.7 1028.7 0.0
19/07:30pm 14.4 11.9 8.4 67 3.0 S 11 17 6 9 1028.6 1028.6 0.0
19/07:00pm 14.9 11.3 8.2 64 3.4 S 17 22 9 12 1028.2 1028.2 0.0
19/06:30pm 15.4 12.0 7.7 60 3.8 SSE 15 22 8 12 1027.7 1027.7 0.0
19/06:00pm 15.8 13.0 7.1 56 4.3 SSE 11 17 6 9 1027.3 1027.3 0.0
19/05:30pm 16.4 12.8 6.8 53 4.7 SSE 15 24 8 13 1027.0 1027.0 0.0
19/05:00pm 17.1 12.7 6.6 50 5.2 SSE 19 28 10 15 1026.6 1026.6 0.0
19/04:30pm 17.5 13.1 6.4 48 5.4 SSE 19 28 10 15 1026.4 1026.4 0.0
19/04:00pm 18.1 13.5 6.3 46 5.8 SSE 20 32 11 17 1026.1 1026.0 0.0
19/03:30pm 18.5 13.9 6.7 46 5.9 SSE 20 32 11 17 1025.8 1025.7 0.0
19/03:00pm 18.8 13.9 6.9 46 5.9 SSE 22 37 12 20 1025.5 1025.4 0.0
19/02:30pm 19.6 15.1 7.0 44 6.3 SSE 20 28 11 15 1025.2 1025.1 0.0
19/02:00pm 18.9 13.8 6.1 43 6.3 SSE 22 37 12 20 1025.2 1025.1 0.0
19/01:30pm 19.5 14.2 6.9 44 6.3 SSE 24 37 13 20 1025.1 1025.0 0.0
19/01:00pm 18.5 14.2 7.9 50 5.4 SSE 20 39 11 21 1025.4 1025.3 0.0
19/12:30pm 18.2 14.2 8.2 52 5.1 SSE 19 32 10 17 1025.5 1025.4 0.0
19/12:00pm 18.4 15.2 8.4 52 5.1 S 15 30 8 16 1025.9 1025.8 0.0
19/11:30am 17.4 13.6 9.1 58 4.3 SSW 19 28 10 15 1026.0 1025.9 0.0
19/11:00am 17.0 14.8 9.4 61 4.0 SSE 11 17 6 9 1026.1 1026.0 0.0
19/10:30am 16.0 14.3 9.7 66 3.3 SSE 9 15 5 8 1026.1 1026.0 0.0
19/10:00am 15.1 11.6 10.1 72 2.6 SSE 19 28 10 15 1026.1 1026.0 0.0
19/09:30am 15.3 12.8 9.7 69 2.9 SSE 13 19 7 10 1026.0 1025.9 0.0
19/09:00am 15.1 13.7 10.9 76 2.2 SE 9 17 5 9 1026.1 1026.0 2.6
19/08:30am 14.3 12.7 11.5 83 1.5 SSE 11 17 6 9 1025.9 1025.8 2.6
19/08:00am 13.6 11.5 11.0 84 1.4 SSW 13 17 7 9 1025.6 1025.5 2.6
19/07:30am 13.4 11.6 10.9 85 1.3 S 11 13 6 7 1025.1 1025.0 2.6
19/07:00am 13.1 10.1 10.8 86 1.2 SSW 17 28 9 15 1024.7 1024.6 2.6
19/06:30am 12.4 11.0 11.0 91 0.7 SSW 9 13 5 7 1024.3 1024.2 2.6
19/06:00am 12.6 11.0 10.3 86 1.2 SSW 9 11 5 6 1023.9 1023.8 2.6
19/05:30am 13.5 11.5 11.6 88 1.0 SSW 13 19 7 10 1023.8 1023.7 2.6
19/05:00am 14.4 12.3 12.3 87 1.1 S 15 20 8 11 1023.0 1022.9 2.6
19/04:30am 14.4 11.1 12.8 90 0.9 SSW 22 28 12 15 1022.8 1022.7 2.6
19/04:00am 15.1 11.9 13.1 88 1.1 S 22 32 12 17 1022.4 1022.3 2.4
19/03:37am 15.2 12.7 14.1 93 0.6 SSW 20 32 11 17 1022.1 1022.0 2.4
19/03:30am 15.3 13.1 14.3 94 0.6 SSW 19 24 10 13 1022.1 1022.0 2.4
19/03:28am 15.4 13.2 14.4 94 0.6 SSW 19 24 10 13 1022.1 1022.0 2.4
19/03:09am 15.7 14.1 14.9 95 0.5 SW 17 26 9 14 1021.9 1021.8 2.2
19/03:03am 15.8 14.2 15.0 95 0.5 SW 17 20 9 11 1021.9 1021.8 1.8
19/03:00am 15.8 13.8 15.0 95 0.5 SW 19 28 10 15 1022.0 1021.9 1.8
19/02:50am 15.7 13.7 14.9 95 0.5 SW 19 22 10 12 1022.1 1022.0 1.8
19/02:30am 15.7 13.0 14.7 94 0.6 WSW 22 28 12 15 1022.3 1022.2 1.6
19/02:21am 15.7 13.5 14.9 95 0.5 WSW 20 26 11 14 1022.4 1022.3 1.6
19/02:00am 15.6 13.5 14.8 95 0.5 SW 19 24 10 13 1022.7 1022.6 1.4
19/01:58am 15.6 13.5 14.8 95 0.5 SW 19 24 10 13 1022.7 1022.6 1.4
19/01:50am 15.6 13.5 14.6 94 0.6 SW 19 24 10 13 1022.7 1022.6 1.4
19/01:30am 15.6 13.9 14.6 94 0.6 SW 17 24 9 13 1022.8 1022.7 1.2
19/01:01am 15.5 14.1 14.5 94 0.6 SW 15 20 8 11 1022.9 1022.8 1.0
19/01:00am 15.5 14.1 14.5 94 0.6 SW 15 20 8 11 1023.0 1022.9 1.0
19/12:36am 15.3 13.8 14.3 94 0.6 SW 15 20 8 11 1023.2 1023.1 0.8
19/12:30am 15.2 13.7 14.2 94 0.6 SW 15 20 8 11 1023.2 1023.1 0.8
19/12:07am 15.2 14.0 13.9 92 0.7 WSW 13 19 7 10 1023.5 1023.4 0.8
19/12:00am 15.2 13.7 14.1 93 0.6 SW 15 22 8 12 1023.6 1023.5 0.8
 
Date/Time
CST
Temp
°C
App
Temp
°C
Dew
Point
°C
Rel
Hum
%
Delta-T
°C
Wind Press
QNH
hPa
Press
MSL
hPa
Rain since
9am
mm
Dir  Spd
km/h
Gust
km/h
Spd
kts
Gust
kts
18/11:35pm 15.1 14.2 13.8 92 0.7 WSW 11 17 6 9 1023.9 1023.8 0.8
18/11:34pm 15.0 14.1 13.7 92 0.7 WSW 11 17 6 9 1023.9 1023.8 0.8
18/11:30pm 15.0 14.1 13.7 92 0.7 WSW 11 15 6 8 1024.0 1023.9 0.6
18/11:21pm 15.0 13.7 13.7 92 0.7 SW 13 17 7 9 1024.0 1023.9 0.6
18/11:00pm 15.1 12.9 13.3 89 1.0 SSW 17 22 9 12 1024.4 1024.3 0.6
18/10:35pm 14.8 14.4 13.0 89 1.0 SSE 7 15 4 8 1024.7 1024.6 0.6
18/10:30pm 14.8 14.6 13.0 89 1.0 S 6 9 3 5 1024.9 1024.8 0.6
18/10:20pm 14.8 14.5 13.2 90 0.9 WSW 7 15 4 8 1024.9 1024.8 0.6
18/10:00pm 15.1 13.5 12.8 86 1.3 SW 13 17 7 9 1025.0 1024.9 0.6
18/09:30pm 15.7 12.6 11.7 77 2.2 SSW 19 28 10 15 1025.0 1024.9 0.6
18/09:00pm 15.6 12.8 12.5 82 1.7 SW 19 24 10 13 1024.8 1024.7 0.6
18/08:30pm 15.4 13.4 12.7 84 1.5 SW 15 19 8 10 1024.8 1024.7 0.6
18/08:00pm 15.3 12.9 12.6 84 1.5 SW 17 22 9 12 1024.8 1024.7 0.6
18/07:30pm 14.8 11.9 12.8 88 1.1 SW 20 28 11 15 1024.8 1024.7 0.6
18/07:00pm 14.3 13.4 12.5 89 1.0 SSW 9 11 5 6 1024.7 1024.6 0.4
18/06:30pm 14.1 11.7 12.7 91 0.8 SSW 17 24 9 13 1024.7 1024.6 0.4
18/06:16pm 14.4 11.5 12.8 90 0.9 SSW 20 32 11 17 1024.7 1024.6 0.4
18/06:00pm 14.4 10.9 13.4 94 0.6 SSW 24 32 13 17 1024.7 1024.6 0.4
18/05:49pm 14.7 11.5 13.2 91 0.8 SSW 22 32 12 17 1024.7 1024.6 0.2
18/05:30pm 15.4 13.0 12.5 83 1.6 S 17 20 9 11 1024.7 1024.6 0.0
18/05:00pm 15.2 12.7 12.2 82 1.6 SSW 17 24 9 13 1024.8 1024.7 0.0
18/04:30pm 16.5 11.6 9.9 65 3.4 SW 26 37 14 20 1025.0 1024.9 0.0
18/04:00pm 17.2 12.2 9.4 60 4.1 SW 26 33 14 18 1025.0 1024.9 0.0
18/03:30pm 17.9 13.1 8.7 55 4.7 SW 24 33 13 18 1025.2 1025.1 0.0
18/03:00pm 17.6 11.7 7.4 51 5.1 SW 28 35 15 19 1025.5 1025.4 0.0
18/02:30pm 18.0 12.5 7.7 51 5.2 SW 26 33 14 18 1025.5 1025.4 0.0
18/02:00pm 17.8 12.5 8.4 54 4.8 WSW 26 33 14 18 1025.6 1025.5 0.0
18/01:30pm 17.6 12.2 8.2 54 4.8 SW 26 35 14 19 1025.9 1025.8 0.0
18/01:00pm 17.3 11.0 7.6 53 4.9 WSW 30 35 16 19 1026.5 1026.5 0.0
18/12:30pm 17.4 11.9 7.7 53 4.9 SW 26 32 14 17 1026.8 1026.8 0.0
18/12:00pm 17.0 12.0 8.2 56 4.5 WSW 24 33 13 18 1027.3 1027.3 0.0
18/11:30am 17.4 13.0 7.2 51 5.1 SW 20 26 11 14 1027.5 1027.5 0.0
18/11:00am 16.9 13.4 7.0 52 4.9 SW 15 24 8 13 1027.7 1027.7 0.0
18/10:30am 16.3 12.4 7.0 54 4.6 SSW 17 28 9 15 1027.8 1027.8 0.0
18/10:00am 16.3 13.0 6.4 52 4.8 S 13 22 7 12 1028.0 1028.0 0.0
18/09:30am 16.1 12.1 6.5 53 4.7 S 17 20 9 11 1028.1 1028.1 0.0
18/09:00am 15.7 12.5 6.7 55 4.4 S 13 19 7 10 1028.1 1028.1 0.0
18/08:30am 15.1 13.2 6.9 58 4.0 SE 6 9 3 5 1028.1 1028.1 0.0
18/08:00am 14.2 12.5 7.5 64 3.3 SE 6 7 3 4 1028.1 1028.1 0.0
18/07:30am 13.6 12.0 8.2 70 2.7 ESE 6 7 3 4 1027.8 1027.8 0.0
18/07:00am 11.7 10.4 9.3 85 1.2 SE 6 9 3 5 1027.5 1027.5 0.0
18/06:30am 10.7 9.7 8.8 88 0.9 SE 4 7 2 4 1027.2 1027.2 0.0
18/06:00am 9.0 8.0 7.5 90 0.7 SSW 2 6 1 3 1027.1 1027.1 0.0
18/05:30am 8.8 8.2 7.3 90 0.7 CALM 0 0 0 0 1026.9 1026.9 0.0
18/05:00am 9.0 8.3 6.8 86 1.0 CALM 0 0 0 0 1027.0 1027.0 0.0
18/04:30am 10.9 9.5 8.8 87 1.0 E 6 7 3 4 1026.8 1026.8 0.0
18/04:00am 11.0 9.6 8.9 87 1.0 ESE 6 7 3 4 1026.7 1026.7 0.0
18/03:30am 9.4 8.1 7.8 90 0.8 ENE 4 7 2 4 1027.0 1027.0 0.0
18/03:00am 7.8 5.6 6.1 89 0.8 NNE 7 9 4 5 1026.9 1026.9 0.0
18/02:30am 8.4 7.5 6.2 86 1.0 CALM 0 0 0 0 1027.2 1027.2 0.0
18/02:00am 9.9 9.3 7.5 85 1.1 CALM 0 0 0 0 1027.5 1027.5 0.0
18/01:30am 9.2 8.6 7.5 89 0.8 CALM 0 0 0 0 1027.8 1027.8 0.0
18/01:00am 9.4 8.6 6.7 83 1.3 CALM 0 0 0 0 1027.8 1027.8 0.0
18/12:30am 11.2 9.7 8.4 83 1.4 ENE 6 9 3 5 1027.6 1027.6 0.0
18/12:00am 11.1 8.9 8.0 81 1.5 NE 9 9 5 5 1028.0 1028.0 0.0
 
Date/Time
CST
Temp
°C
App
Temp
°C
Dew
Point
°C
Rel
Hum
%
Delta-T
°C
Wind Press
QNH
hPa
Press
MSL
hPa
Rain since
9am
mm
Dir  Spd
km/h
Gust
km/h
Spd
kts
Gust
kts
17/11:30pm 13.0 11.8 9.4 79 1.8 S 6 7 3 4 1028.2 1028.2 0.0
17/11:00pm 13.5 12.1 9.4 76 2.1 S 7 9 4 5 1028.3 1028.3 0.0
17/10:30pm 14.0 12.6 9.6 75 2.2 SSE 7 11 4 6 1028.6 1028.6 0.0
17/10:00pm 13.6 12.2 9.5 76 2.1 SSE 7 11 4 6 1028.7 1028.7 0.0
17/09:30pm 13.5 11.3 9.2 75 2.2 S 11 15 6 8 1028.6 1028.6 0.0
17/09:00pm 13.8 11.1 9.0 73 2.4 S 13 15 7 8 1028.7 1028.7 0.0
17/08:30pm 14.3 11.6 9.1 71 2.6 S 13 20 7 11 1028.4 1028.4 0.0
17/08:00pm 14.8 11.3 8.7 67 3.1 S 17 26 9 14 1028.1 1028.1 0.0
17/07:30pm 15.2 12.3 8.2 63 3.5 S 13 17 7 9 1027.8 1027.8 0.0
17/07:00pm 15.7 13.1 7.7 59 4.0 S 11 17 6 9 1027.4 1027.4 0.0
17/06:30pm 16.3 12.9 7.5 56 4.4 S 15 19 8 10 1026.9 1026.9 0.0
17/06:00pm 17.1 14.0 7.2 52 4.9 SSE 13 26 7 14 1026.6 1026.6 0.0
17/05:30pm 17.9 13.9 6.7 48 5.5 SSE 17 28 9 15 1026.1 1026.0 0.0
17/05:00pm 18.7 14.8 7.2 47 5.8 S 17 26 9 14 1026.0 1025.9 0.0
17/04:30pm 19.2 14.8 7.6 47 5.9 SSW 20 28 11 15 1025.7 1025.6 0.0
17/04:00pm 18.7 13.0 8.4 51 5.3 SW 28 35 15 19 1025.9 1025.8 0.0
17/03:30pm 19.5 15.4 8.5 49 5.7 SSW 20 28 11 15 1026.0 1025.9 0.0
17/03:00pm 19.5 14.9 8.2 48 5.8 SSW 22 28 12 15 1026.3 1026.3 0.0
17/02:30pm 20.1 16.0 7.8 45 6.3 SSW 19 28 10 15 1026.4 1026.4 0.0
17/02:00pm 19.9 15.5 7.6 45 6.3 S 20 30 11 16 1026.4 1026.4 0.0
17/01:30pm 19.2 14.9 7.9 48 5.8 SW 20 26 11 14 1026.7 1026.7 0.0
17/01:00pm 18.9 14.6 8.0 49 5.6 SSW 20 26 11 14 1027.1 1027.1 0.0
17/12:30pm 18.6 14.6 10.4 59 4.4 WSW 22 32 12 17 1027.5 1027.5 0.0
17/12:00pm 18.6 13.9 9.4 55 4.8 WSW 24 33 13 18 1028.0 1028.0 0.0
17/11:30am 18.7 15.9 8.4 51 5.3 SW 13 17 7 9 1028.3 1028.3 0.0
17/11:00am 18.2 15.6 9.3 56 4.7 WSW 13 22 7 12 1028.5 1028.5 0.0
17/10:30am 17.8 14.7 8.9 56 4.6 WSW 15 26 8 14 1028.6 1028.6 0.0
17/10:00am 17.7 16.1 8.8 56 4.6 S 7 13 4 7 1028.9 1028.9 0.0
17/09:30am 16.0 14.7 9.2 64 3.5 WSW 6 11 3 6 1029.0 1029.0 0.0
17/09:00am 15.4 13.6 9.3 67 3.1 WSW 9 13 5 7 1029.1 1029.1 0.0
17/08:30am 14.8 13.5 9.2 69 2.8 SSW 6 11 3 6 1029.0 1029.0 0.0
17/08:00am 13.0 11.5 9.1 77 2.0 NNW 7 11 4 6 1028.7 1028.7 0.0
17/07:30am 9.2 8.7 7.8 91 0.7 CALM 0 0 0 0 1028.5 1028.5 0.0
17/07:00am 8.1 7.0 6.9 92 0.6 N 2 6 1 3 1028.1 1028.1 0.0
17/06:30am 8.3 6.4 6.9 91 0.6 N 6 7 3 4 1027.6 1027.6 0.0
17/06:00am 8.1 6.1 6.9 92 0.6 NNE 7 9 4 5 1027.5 1027.5 0.0
17/05:30am 8.5 7.5 7.3 92 0.6 NE 2 7 1 4 1027.4 1027.4 0.0
17/05:00am 8.3 7.6 6.8 90 0.7 CALM 0 0 0 0 1027.3 1027.3 0.0
17/04:30am 9.0 7.1 7.5 90 0.7 NNE 7 9 4 5 1027.1 1027.1 0.0
17/04:00am 9.9 8.7 8.0 88 0.9 ENE 4 6 2 3 1027.0 1027.0 0.0
17/03:30am 8.4 7.6 6.4 87 0.9 CALM 0 0 0 0 1026.9 1026.9 0.0
17/03:00am 8.1 7.3 6.4 89 0.8 CALM 0 0 0 0 1026.8 1026.8 0.0
17/02:30am 9.4 8.5 6.1 80 1.5 CALM 0 0 0 0 1026.9 1026.9 0.0
17/02:00am 10.5 9.1 7.2 80 1.6 ENE 4 7 2 4 1027.1 1027.1 0.0
17/01:30am 10.1 8.6 6.8 80 1.5 E 4 7 2 4 1027.1 1027.1 0.0
17/01:00am 9.4 8.5 6.1 80 1.5 CALM 0 0 0 0 1027.0 1027.0 0.0

Latest Capital City Observations: Canberra | Sydney | Melbourne | Brisbane | Adelaide | Perth | Hobart | Darwin

Other formats

Comma delimited format used in spreadsheet applications
http://www.bom.gov.au/fwo/IDS60901/IDS60901.95676.axf

JavaScript Object Notation format (JSON) in row-major order
http://www.bom.gov.au/fwo/IDS60901/IDS60901.95676.json

Data quality

Most of these data are generated automatically and are frequently updated. Quality checks on data are not normally performed. It is possible for incorrect values to appear. Refer to information at About Latest Weather Observations and please check the disclaimer before using these data.